Time;durP1;ratioP1;P1;durP2;ratioP2;P2;SDS_P1;SDS_P2;PMS_P1;PMS_P2;Temp;Humidity;BMP_temperature;BMP_pressure;BME280_temperature;BME280_humidity;BME280_pressure;Samples;Min_cycle;Max_cycle;Signal;HPM_P1;HPM_P2
2022/04/02 00:00:08;;;;;;;85.65;18.65;;;;;;;18.20;55.21;99030.28;4979067;28;20030;-86
2022/04/02 00:02:33;;;;;;;111.63;19.38;;;;;;;18.60;55.27;99085.50;4977432;28;20043;-86
2022/04/02 00:04:58;;;;;;;85.68;17.02;;;;;;;18.29;55.45;99040.75;4959536;28;20094;-86
2022/04/02 00:07:24;;;;;;;95.43;19.35;;;;;;;18.60;55.27;99085.50;4979426;28;20030;-87
2022/04/02 00:09:49;;;;;;;78.72;17.42;;;;;;;18.37;55.20;99039.69;4977842;28;20034;-87
2022/04/02 00:12:15;;;;;;;83.03;16.00;;;;;;;18.63;55.26;99091.38;4959625;28;20026;-88
2022/04/02 00:14:41;;;;;;;88.05;17.00;;;;;;;18.65;55.12;99093.91;4976532;28;20018;-86
2022/04/02 00:17:06;;;;;;;88.50;18.58;;;;;;;18.54;55.18;99059.13;4977112;28;20034;-86
2022/04/02 00:19:32;;;;;;;77.78;18.48;;;;;;;18.64;55.29;99082.16;4976544;28;20035;-86
2022/04/02 00:21:58;;;;;;;76.90;17.67;;;;;;;18.39;55.34;99054.75;4976527;28;20030;-86
2022/04/02 00:24:23;;;;;;;87.07;19.25;;;;;;;18.48;55.56;99061.63;4977700;28;20042;-85
2022/04/02 00:26:48;;;;;;;85.65;17.58;;;;;;;18.42;55.50;99050.75;4976311;28;20078;-86
2022/04/02 00:29:15;;;;;;;116.18;20.23;;;;;;;18.29;56.13;99048.91;4983645;28;20053;-86
2022/04/02 00:31:41;;;;;;;81.93;17.73;;;;;;;18.01;56.47;99029.28;4977847;28;20058;-86
2022/04/02 00:34:07;;;;;;;66.32;17.58;;;;;;;18.25;56.24;99036.78;4986448;28;20027;-84
2022/04/02 00:36:37;;;;;;;87.97;16.08;;;;;;;18.13;56.35;99024.88;4989787;28;20184;-84
2022/04/02 00:39:05;;;;;;;94.57;17.73;;;;;;;18.04;56.57;99012.53;4973043;28;20039;-86
2022/04/02 00:41:30;;;;;;;98.20;17.45;;;;;;;18.13;56.84;99035.78;4982609;28;20042;-86
2022/04/02 00:43:59;;;;;;;91.80;16.20;;;;;;;18.04;56.97;99026.13;4976566;28;20343;-86
2022/04/02 00:46:25;;;;;;;89.20;15.93;;;;;;;18.04;57.23;99031.56;4978209;28;20098;-87
2022/04/02 00:48:50;;;;;;;96.50;17.70;;;;;;;17.87;57.70;99038.50;4976623;28;20019;-85
2022/04/02 00:51:18;;;;;;;80.95;16.10;;;;;;;17.94;57.48;99042.06;4958916;28;20041;-85
2022/04/02 00:53:46;;;;;;;93.13;17.48;;;;;;;17.59;57.19;98970.75;4959194;28;20412;-86
2022/04/02 00:56:13;;;;;;;99.00;18.30;;;;;;;18.11;56.78;99035.13;4977109;28;20027;-85
2022/04/02 00:58:40;;;;;;;98.88;18.60;;;;;;;17.81;56.86;98985.78;4978867;28;20030;-86
2022/04/02 01:01:06;;;;;;;92.93;16.25;;;;;;;18.02;57.18;99022.78;4963744;28;20034;-86
2022/04/02 01:03:33;;;;;;;91.43;18.85;;;;;;;18.02;57.17;99028.22;4990434;28;20120;-86
2022/04/02 01:05:58;;;;;;;85.82;15.38;;;;;;;17.78;56.91;98969.91;4990403;28;20440;-85
2022/04/02 01:08:24;;;;;;;96.38;15.82;;;;;;;17.67;56.84;98959.69;4998451;28;20022;-85
2022/04/02 01:10:49;;;;;;;85.07;16.65;;;;;;;18.03;57.09;99016.31;4996779;28;20038;-85
2022/04/02 01:13:16;;;;;;;96.57;16.83;;;;;;;17.70;57.02;98963.84;4992141;28;20046;-86
2022/04/02 01:15:41;;;;;;;107.97;18.55;;;;;;;18.04;56.89;99028.84;4983263;28;20034;-85
2022/04/02 01:18:07;;;;;;;91.93;17.10;;;;;;;17.87;56.84;98986.81;4975466;28;20031;-86
2022/04/02 01:20:34;;;;;;;84.75;18.10;;;;;;;18.03;56.91;99039.97;4979595;28;20034;-85
2022/04/02 01:23:00;;;;;;;96.65;18.65;;;;;;;17.88;57.55;99021.16;4975676;28;20027;-87
2022/04/02 01:25:32;;;;;;;94.40;18.75;;;;;;;17.93;57.62;99029.50;4978009;28;20026;-88
2022/04/02 01:28:01;;;;;;;97.55;16.02;;;;;;;17.83;57.84;99029.94;4983114;28;20386;-87
2022/04/02 01:30:30;;;;;;;91.00;16.08;;;;;;;17.86;57.77;99044.97;4977875;28;20030;-86
2022/04/02 01:33:01;;;;;;;88.85;17.08;;;;;;;17.70;58.08;99023.66;4976504;28;20085;-86
2022/04/02 01:35:27;;;;;;;81.07;17.13;;;;;;;17.76;58.57;99044.59;4974970;28;20031;-87
2022/04/02 01:37:54;;;;;;;95.05;17.60;;;;;;;17.58;58.28;99019.91;4957149;28;20122;-87
2022/04/02 01:40:20;;;;;;;112.53;18.58;;;;;;;17.53;58.35;99006.06;4982940;28;20027;-86
2022/04/02 01:42:46;;;;;;;76.65;16.65;;;;;;;17.85;58.47;99055.06;4974890;28;20026;-85
2022/04/02 01:45:13;;;;;;;75.38;18.38;;;;;;;17.49;58.45;98980.34;4974321;28;20125;-85
2022/04/02 01:47:39;;;;;;;88.15;17.13;;;;;;;17.92;58.24;99050.41;4975148;28;20039;-85
2022/04/02 01:50:07;;;;;;;86.70;16.73;;;;;;;18.00;57.93;99052.09;4974614;28;20101;-85
2022/04/02 01:52:32;;;;;;;118.20;18.67;;;;;;;17.89;58.31;99036.41;4974340;28;20033;-86
2022/04/02 01:54:58;;;;;;;99.43;17.83;;;;;;;17.93;58.55;99056.69;4974376;28;20031;-86
2022/04/02 01:57:23;;;;;;;76.72;17.58;;;;;;;17.97;58.50;99055.25;4957204;28;20144;-87
2022/04/02 01:59:50;;;;;;;82.60;17.67;;;;;;;17.70;58.98;99012.78;4976453;28;20035;-87
2022/04/02 02:02:16;;;;;;;91.88;17.05;;;;;;;17.82;59.04;99047.31;4982566;28;20031;-85
2022/04/02 02:04:42;;;;;;;89.32;18.48;;;;;;;17.80;59.32;99051.25;4986652;28;20030;-86
2022/04/02 02:07:07;;;;;;;89.32;17.25;;;;;;;17.76;59.48;99040.00;4987608;28;20409;-83
2022/04/02 02:09:34;;;;;;;88.28;17.17;;;;;;;17.78;59.63;99047.91;4959706;28;20038;-86
2022/04/02 02:12:00;;;;;;;104.22;18.77;;;;;;;17.63;60.13;99044.56;4975016;28;20071;-86
2022/04/02 02:14:26;;;;;;;96.63;19.35;;;;;;;17.60;60.47;99054.00;4974481;28;20045;-86
2022/04/02 02:16:52;;;;;;;86.20;18.70;;;;;;;17.53;60.49;99049.53;4974836;28;20023;-87
2022/04/02 02:19:17;;;;;;;96.53;17.00;;;;;;;17.48;60.58;99038.47;4974259;28;20023;-86
2022/04/02 02:21:43;;;;;;;87.55;16.08;;;;;;;17.60;60.68;99061.31;4974473;28;20031;-87
2022/04/02 02:24:08;;;;;;;85.30;17.13;;;;;;;17.54;60.76;99051.22;4957073;28;20031;-86
2022/04/02 02:26:34;;;;;;;97.47;18.02;;;;;;;17.55;61.03;99055.66;4974209;28;20113;-86
2022/04/02 02:29:00;;;;;;;84.85;15.73;;;;;;;17.47;61.05;99053.09;4973731;28;20030;-87
2022/04/02 02:31:26;;;;;;;90.78;17.33;;;;;;;17.10;61.31;98984.69;4974225;28;20027;-86
2022/04/02 02:36:36;;;;;;;90.38;19.23;;;;;;;17.45;61.27;99041.59;4974442;28;20169;-88
2022/04/02 02:39:01;;;;;;;94.25;17.70;;;;;;;17.52;61.38;99072.34;4974108;28;20110;-84
2022/04/02 02:41:27;;;;;;;84.90;16.80;;;;;;;17.55;61.19;99067.34;4977956;28;20030;-87
2022/04/02 02:43:52;;;;;;;86.03;17.73;;;;;;;17.42;61.23;99048.28;4988641;28;20107;-86
2022/04/02 02:46:18;;;;;;;90.70;17.70;;;;;;;17.46;61.80;99070.47;4958341;28;20452;-86
2022/04/02 02:48:45;;;;;;;111.15;19.02;;;;;;;17.40;61.88;99067.50;4973834;28;20023;-86
2022/04/02 02:51:11;;;;;;;102.13;17.52;;;;;;;17.25;62.16;99045.13;4956665;28;20033;-86
2022/04/02 02:53:37;;;;;;;93.75;16.45;;;;;;;17.36;62.27;99070.84;4974269;28;20027;-86
2022/04/02 02:56:02;;;;;;;78.38;17.67;;;;;;;17.36;61.98;99066.28;4981792;28;20023;-85
2022/04/02 02:58:28;;;;;;;97.30;19.85;;;;;;;17.06;62.59;99026.91;4977398;28;20445;-86
2022/04/02 03:00:53;;;;;;;95.32;17.92;;;;;;;17.15;62.88;99050.13;4974142;28;20038;-85
2022/04/02 03:03:19;;;;;;;106.45;17.10;;;;;;;17.12;62.70;99025.25;4964813;28;20114;-85
2022/04/02 03:05:45;;;;;;;95.20;18.40;;;;;;;17.08;62.75;99038.41;4981184;28;20022;-86
2022/04/02 03:08:11;;;;;;;101.30;17.15;;;;;;;17.21;63.03;99062.88;4974276;28;20023;-86
2022/04/02 03:10:36;;;;;;;105.38;17.15;;;;;;;17.17;63.42;99061.63;4973495;28;20034;-86
2022/04/02 03:13:02;;;;;;;104.50;16.90;;;;;;;16.83;63.55;99010.13;4973462;28;20040;-85
2022/04/02 03:15:27;;;;;;;92.63;17.92;;;;;;;17.25;63.30;99064.13;4973272;28;20551;-85
2022/04/02 03:17:54;;;;;;;86.50;15.75;;;;;;;17.22;63.28;99058.28;4973664;28;20027;-86
2022/04/02 03:20:21;;;;;;;89.07;16.63;;;;;;;17.12;63.40;99047.81;4974013;28;20027;-86
2022/04/02 03:22:49;;;;;;;95.50;18.80;;;;;;;17.22;63.39;99058.28;4973632;28;20018;-86
2022/04/02 03:25:17;;;;;;;91.82;17.63;;;;;;;17.23;63.28;99055.38;4977495;28;20034;-85
2022/04/02 03:27:44;;;;;;;109.20;18.63;;;;;;;17.15;63.16;99019.41;4963925;28;20030;-84
2022/04/02 03:30:12;;;;;;;80.65;16.77;;;;;;;17.19;63.36;99048.66;4987176;28;20197;-84
2022/04/02 03:32:39;;;;;;;91.50;16.85;;;;;;;17.09;63.61;99039.25;4968934;28;20493;-84
2022/04/02 03:35:06;;;;;;;95.10;16.20;;;;;;;16.84;63.76;98992.78;4991748;28;20052;-83
2022/04/02 03:37:37;;;;;;;93.70;16.02;;;;;;;17.07;64.44;99044.88;4978340;28;20485;-86
2022/04/02 03:40:09;;;;;;;94.18;18.88;;;;;;;17.04;64.17;99045.28;4988898;28;20026;-86
2022/04/02 03:42:35;;;;;;;;;;;;;;;17.01;64.37;99032.09;4979566;28;20093;-84
2022/04/02 03:45:01;;;;;;;82.93;15.60;;;;;;;16.81;64.57;99006.78;4976442;28;19917;-85
2022/04/02 03:47:27;;;;;;;98.53;15.70;;;;;;;16.62;64.96;99002.09;4976733;28;20039;-87
2022/04/02 03:49:52;;;;;;;97.18;16.90;;;;;;;16.55;65.16;98990.38;4976881;28;20038;-86
2022/04/02 03:52:18;;;;;;;81.05;16.25;;;;;;;16.94;64.69;99061.09;4976526;28;20054;-86
2022/04/02 03:54:44;;;;;;;102.05;14.88;;;;;;;16.92;64.68;99060.50;4976679;28;20035;-85
2022/04/02 03:57:13;;;;;;;89.63;17.25;;;;;;;16.95;64.81;99060.09;4976203;28;20386;-85
2022/04/02 03:59:41;;;;;;;113.07;16.77;;;;;;;16.88;64.68;99042.09;4976920;28;20085;-86
2022/04/02 04:02:07;;;;;;;108.57;16.90;;;;;;;16.68;64.73;99023.84;4976791;28;20469;-85
2022/04/02 04:04:33;;;;;;;89.57;17.38;;;;;;;16.79;64.38;99031.41;4959596;28;20034;-87
2022/04/02 04:06:59;;;;;;;95.05;16.58;;;;;;;16.78;64.66;99040.59;4977096;28;20581;-86
2022/04/02 04:09:25;;;;;;;89.85;16.15;;;;;;;16.47;64.66;99004.09;4982976;28;20105;-86
2022/04/02 04:11:54;;;;;;;84.13;15.70;;;;;;;16.95;64.46;99084.53;4967429;28;20035;-86
2022/04/02 04:14:20;;;;;;;90.85;16.40;;;;;;;16.53;64.36;99020.41;4977203;28;20066;-85
2022/04/02 04:16:47;;;;;;;100.68;18.42;;;;;;;17.03;64.22;99089.75;4979023;28;20027;-86
2022/04/02 04:19:13;;;;;;;85.13;16.33;;;;;;;17.02;64.24;99087.25;4983974;28;20050;-86
2022/04/02 04:21:39;;;;;;;97.15;17.65;;;;;;;16.86;64.03;99053.16;4964141;28;20405;-85
2022/04/02 04:24:06;;;;;;;106.93;18.60;;;;;;;17.12;63.81;99085.84;4976674;28;20078;-85
2022/04/02 04:26:31;;;;;;;105.32;15.77;;;;;;;17.15;63.95;99096.31;4976297;28;20026;-86
2022/04/02 04:28:57;;;;;;;70.38;16.02;;;;;;;16.99;63.85;99068.66;4979069;28;20044;-84
2022/04/02 04:31:24;;;;;;;88.45;17.92;;;;;;;17.24;63.21;99095.09;4979394;28;20089;-86
2022/04/02 04:33:49;;;;;;;90.32;16.75;;;;;;;17.24;62.99;99073.34;4978007;28;20029;-86
2022/04/02 04:36:16;;;;;;;91.90;16.13;;;;;;;17.09;62.91;99041.97;4975670;28;20093;-85
2022/04/02 04:38:43;;;;;;;83.75;15.85;;;;;;;17.08;62.97;99040.28;4976687;28;20015;-84
2022/04/02 04:41:09;;;;;;;93.68;18.13;;;;;;;17.17;63.20;99075.19;4977081;28;20601;-85
2022/04/02 04:43:35;;;;;;;81.30;15.65;;;;;;;17.03;62.72;99045.50;4976380;28;20023;-87
2022/04/02 04:46:02;;;;;;;83.57;16.10;;;;;;;16.96;62.92;99059.03;4962242;28;20026;-86
2022/04/02 04:48:28;;;;;;;93.88;17.27;;;;;;;17.17;63.32;99110.53;4962888;28;20105;-86
2022/04/02 04:50:53;;;;;;;100.43;16.08;;;;;;;17.13;63.66;99109.25;4971525;28;20117;-85
2022/04/02 04:53:19;;;;;;;84.28;15.15;;;;;;;17.16;63.31;99108.00;4988206;28;20051;-84
2022/04/02 04:55:44;;;;;;;109.18;17.02;;;;;;;17.17;63.37;99112.41;4985156;28;20038;-86
2022/04/02 04:58:10;;;;;;;75.50;16.83;;;;;;;17.15;63.47;99118.03;4989270;28;20030;-83
2022/04/02 05:00:35;;;;;;;97.45;17.80;;;;;;;17.16;63.03;99103.41;4987736;28;20113;-85
2022/04/02 05:03:01;;;;;;;84.82;16.15;;;;;;;17.27;62.94;99127.28;4968069;28;20404;-85
2022/04/02 05:05:31;;;;;;;101.35;17.73;;;;;;;16.98;62.83;99080.56;4980924;28;20026;-85
2022/04/02 05:07:58;;;;;;;90.90;16.13;;;;;;;17.23;62.52;99134.16;4975233;28;20019;-85
2022/04/02 05:10:24;;;;;;;79.28;15.15;;;;;;;17.13;62.57;99114.69;4957989;28;20603;-85
2022/04/02 05:12:49;;;;;;;87.22;14.95;;;;;;;17.34;62.42;99138.16;4957775;28;20026;-86
2022/04/02 05:15:15;;;;;;;84.03;14.35;;;;;;;17.34;61.83;99141.72;4985131;28;20027;-85
2022/04/02 05:17:41;;;;;;;86.03;16.30;;;;;;;17.32;61.34;99135.66;4979942;28;20019;-87
2022/04/02 05:20:10;;;;;;;71.15;13.98;;;;;;;17.30;61.75;99148.63;4975049;28;20027;-87
2022/04/02 05:22:36;;;;;;;76.13;16.08;;;;;;;17.20;61.50;99112.81;4975269;28;20044;-86
2022/04/02 05:25:02;;;;;;;93.97;15.18;;;;;;;17.35;61.46;99156.13;4977482;28;20480;-87
2022/04/02 05:27:28;;;;;;;78.82;15.30;;;;;;;17.07;61.61;99117.34;4975106;28;20027;-87
2022/04/02 05:29:54;;;;;;;66.38;13.90;;;;;;;17.31;61.56;99147.53;4974881;28;20042;-86
2022/04/02 05:32:20;;;;;;;91.80;18.20;;;;;;;17.21;61.12;99117.22;4975034;28;20031;-87
2022/04/02 05:34:46;;;;;;;70.25;13.23;;;;;;;17.15;61.13;99112.63;4974749;28;20034;-86
2022/04/02 05:37:11;;;;;;;62.13;14.95;;;;;;;17.07;60.90;99096.47;4974441;28;20101;-87
2022/04/02 05:39:37;;;;;;;62.22;13.43;;;;;;;16.96;60.48;99074.50;4957379;28;20039;-87
2022/04/02 05:42:05;;;;;;;67.65;14.07;;;;;;;17.11;60.19;99095.03;4974336;28;20037;-86
2022/04/02 05:44:31;;;;;;;78.15;15.00;;;;;;;17.39;60.52;99151.97;4956950;28;20109;-87
2022/04/02 05:46:57;;;;;;;74.35;14.20;;;;;;;17.50;60.21;99172.28;4973545;28;20118;-86
2022/04/02 05:49:23;;;;;;;87.75;14.10;;;;;;;17.52;59.70;99168.31;4974644;28;20059;-86
2022/04/02 05:51:49;;;;;;;62.53;15.02;;;;;;;17.21;59.99;99121.81;4974687;28;20027;-87
2022/04/02 05:54:14;;;;;;;83.35;14.02;;;;;;;17.27;59.74;99124.56;4978556;28;20042;-87
2022/04/02 05:56:42;;;;;;;78.93;13.68;;;;;;;17.33;59.42;99131.91;4984926;28;20073;-85
2022/04/02 05:59:08;;;;;;;66.97;13.63;;;;;;;17.39;59.08;99130.25;4957822;28;20018;-86
2022/04/02 06:01:35;;;;;;;62.88;12.93;;;;;;;17.40;58.37;99130.00;4973786;28;20089;-86
2022/04/02 06:04:01;;;;;;;69.85;12.50;;;;;;;17.78;58.26;99184.72;4973825;28;20388;-86
2022/04/02 06:06:26;;;;;;;81.25;14.70;;;;;;;17.79;57.94;99180.97;4974557;28;20027;-87
2022/04/02 06:08:52;;;;;;;66.72;13.63;;;;;;;17.86;57.43;99181.81;4974624;28;20030;-87
2022/04/02 06:11:17;;;;;;;67.85;14.63;;;;;;;17.71;57.61;99161.28;4974088;28;20126;-87
2022/04/02 06:13:43;;;;;;;76.35;16.63;;;;;;;17.80;57.61;99187.22;4974362;28;20544;-86
2022/04/02 06:16:08;;;;;;;75.25;14.00;;;;;;;17.74;57.72;99156.28;4974616;28;20019;-88
2022/04/02 06:18:35;;;;;;;62.25;13.23;;;;;;;17.58;57.02;99117.78;4974458;28;20068;-87
2022/04/02 06:21:03;;;;;;;70.40;13.50;;;;;;;18.03;56.91;99186.88;4975147;28;20030;-85
2022/04/02 06:23:29;;;;;;;85.30;14.60;;;;;;;18.07;56.71;99199.03;4980418;28;20548;-86
2022/04/02 06:25:55;;;;;;;75.82;12.73;;;;;;;17.61;56.22;99114.63;4980654;28;20031;-86
2022/04/02 06:28:20;;;;;;;60.05;12.93;;;;;;;18.03;55.81;99165.94;4964224;28;20019;-86
2022/04/02 06:30:46;;;;;;;78.40;12.27;;;;;;;18.07;55.36;99178.06;4976684;28;20018;-85
2022/04/02 06:33:11;;;;;;;58.92;12.10;;;;;;;18.29;55.29;99197.75;4974435;28;20028;-87
2022/04/02 06:35:37;;;;;;;64.18;12.65;;;;;;;17.82;55.34;99119.91;4977147;28;20516;-88
2022/04/02 06:38:02;;;;;;;67.40;11.88;;;;;;;18.36;54.96;99195.88;4983789;28;20019;-87
2022/04/02 06:40:28;;;;;;;75.10;12.90;;;;;;;18.42;54.77;99198.59;4984513;28;20385;-86
2022/04/02 06:42:56;;;;;;;60.05;10.77;;;;;;;18.32;54.14;99181.84;4989243;28;20477;-84
2022/04/02 06:45:22;;;;;;;57.35;10.35;;;;;;;18.40;53.63;99173.50;4960762;28;20055;-87
2022/04/02 06:47:48;;;;;;;56.58;12.18;;;;;;;18.67;52.95;99201.56;4978421;28;20110;-86
2022/04/02 06:50:14;;;;;;;56.63;10.15;;;;;;;18.44;52.88;99155.66;4978103;28;20524;-85
2022/04/02 06:52:41;;;;;;;57.03;11.40;;;;;;;18.45;52.25;99138.28;4979189;28;20023;-86
2022/04/02 06:55:11;;;;;;;58.90;9.85;;;;;;;18.70;51.89;99167.59;4960007;28;20512;-86
2022/04/02 06:57:44;;;;;;;51.65;10.55;;;;;;;18.50;51.49;99118.63;4984274;28;20034;-87
2022/04/02 07:00:11;;;;;;;46.35;9.90;;;;;;;19.04;51.12;99186.38;4979079;28;20031;-86
2022/04/02 07:02:37;;;;;;;55.47;9.73;;;;;;;18.71;50.48;99132.00;4961069;28;20027;-85
2022/04/02 07:05:04;;;;;;;43.95;8.32;;;;;;;18.77;50.41;99135.75;4960919;28;20125;-86
2022/04/02 07:07:30;;;;;;;52.42;8.55;;;;;;;18.72;49.73;99127.38;4977932;28;20027;-86
2022/04/02 07:09:55;;;;;;;50.92;9.65;;;;;;;18.74;49.58;99119.84;4960070;28;20030;-85
2022/04/02 07:12:21;;;;;;;41.58;9.38;;;;;;;19.30;49.36;99196.34;4977154;28;20127;-85
2022/04/02 07:14:46;;;;;;;46.90;9.07;;;;;;;19.01;49.16;99140.50;4959529;28;20038;-87
2022/04/02 07:17:13;;;;;;;53.97;8.98;;;;;;;19.18;48.75;99152.56;4977701;28;20031;-86
2022/04/02 07:19:39;;;;;;;38.90;8.32;;;;;;;19.38;48.63;99177.03;4977858;28;20027;-86
2022/04/02 07:22:09;;;;;;;43.95;8.77;;;;;;;19.49;48.17;99193.59;4977826;28;20059;-84
2022/04/02 07:24:38;;;;;;;45.92;9.77;;;;;;;19.42;47.81;99170.94;4976900;28;20039;-86
2022/04/02 07:27:04;;;;;;;34.35;8.15;;;;;;;19.65;47.39;99183.22;4960610;28;20034;-85
2022/04/02 07:29:31;;;;;;;26.38;6.10;;;;;;;19.69;44.45;99184.47;4981505;28;20034;-86
2022/04/02 07:31:57;;;;;;;29.55;6.47;;;;;;;19.67;42.99;99186.56;4990055;28;20035;-86
2022/04/02 07:34:23;;;;;;;39.17;5.45;;;;;;;19.70;42.17;99197.03;4985275;28;20072;-86
2022/04/02 07:37:06;;;;;;;31.48;6.07;;;;;;;19.80;41.79;99179.16;4976648;28;20081;-87
2022/04/02 07:39:59;;;;;;;36.28;6.05;;;;;;;19.57;42.41;99148.03;4977954;28;20087;-87
2022/04/02 07:42:33;;;;;;;26.48;5.97;;;;;;;19.86;42.02;99177.44;4977796;28;20023;-87
2022/04/02 07:45:13;;;;;;;33.33;5.57;;;;;;;20.02;41.24;99223.31;4977725;28;20043;-86
2022/04/02 07:47:43;;;;;;;25.25;4.85;;;;;;;20.09;40.13;99204.97;4980437;28;20472;-84
2022/04/02 07:50:13;;;;;;;13.73;3.78;;;;;;;20.14;40.20;99196.97;4985647;28;20034;-85
2022/04/02 07:52:43;;;;;;;20.83;5.05;;;;;;;20.28;40.26;99190.38;4969106;28;20026;-86
2022/04/02 07:55:09;;;;;;;19.77;5.30;;;;;;;20.37;40.17;99199.97;4983827;28;20035;-85
2022/04/02 07:57:39;;;;;;;26.52;5.07;;;;;;;20.46;39.77;99198.63;4977217;28;20074;-86
2022/04/02 08:00:06;;;;;;;18.55;4.15;;;;;;;20.60;39.30;99188.44;4976620;28;20027;-86
2022/04/02 08:02:39;;;;;;;18.48;4.65;;;;;;;20.71;38.25;99205.97;4976533;28;20027;-86
2022/04/02 08:05:10;;;;;;;;;;;;;;;20.74;38.12;99195.44;4976619;28;20053;-84
2022/04/02 08:07:38;;;;;;;20.10;4.97;;;;;;;20.74;38.22;99206.38;4976684;28;19910;-86
2022/04/02 08:10:07;;;;;;;23.50;3.85;;;;;;;20.88;38.01;99193.44;4975415;28;20070;-86
2022/04/02 08:12:36;;;;;;;20.30;5.07;;;;;;;20.91;38.05;99173.84;4976855;28;20026;-85
2022/04/02 08:15:09;;;;;;;26.92;3.40;;;;;;;20.98;35.97;99166.38;4994063;28;20037;-85
2022/04/02 08:17:38;;;;;;;15.30;3.60;;;;;;;21.19;35.55;99193.34;4995066;28;20027;-84
2022/04/02 08:20:05;;;;;;;14.18;2.60;;;;;;;21.28;35.10;99197.44;4996744;28;20521;-84
2022/04/02 08:22:31;;;;;;;7.03;1.83;;;;;;;21.36;34.67;99194.38;4970294;28;20390;-86
2022/04/02 08:24:58;;;;;;;9.40;2.78;;;;;;;21.39;33.85;99213.06;4960088;28;20512;-86
2022/04/02 08:27:45;;;;;;;21.75;2.28;;;;;;;21.44;33.89;99210.47;4973715;28;20027;-85
2022/04/02 08:30:43;;;;;;;12.90;2.50;;;;;;;21.25;33.64;99180.63;4988228;28;20022;-86
2022/04/02 08:33:37;;;;;;;12.65;2.10;;;;;;;21.50;33.69;99212.28;4984901;28;20042;-86
2022/04/02 08:36:10;;;;;;;14.95;2.08;;;;;;;21.62;33.64;99204.97;4976456;28;20082;-85
2022/04/02 08:38:52;;;;;;;11.05;2.17;;;;;;;21.37;33.58;99168.69;4958499;28;20034;-86
2022/04/02 08:41:39;;;;;;;10.63;2.50;;;;;;;21.80;33.46;99217.81;4975764;28;20031;-85
2022/04/02 08:44:45;;;;;;;10.93;2.10;;;;;;;21.81;33.23;99208.50;4955199;29;20039;-86
2022/04/02 08:47:28;;;;;;;10.50;2.72;;;;;;;21.80;33.63;99220.53;4957014;28;20082;-86
2022/04/02 08:50:11;;;;;;;5.57;1.80;;;;;;;21.83;32.92;99213.78;4956997;29;20043;-87
2022/04/02 08:52:57;;;;;;;9.20;2.42;;;;;;;21.69;33.25;99222.16;4955461;29;20106;-84
2022/04/02 08:55:35;;;;;;;9.75;2.53;;;;;;;21.63;33.84;99217.59;4959622;28;20034;-86
2022/04/02 08:58:13;;;;;;;15.77;2.47;;;;;;;21.45;34.20;99187.53;4955633;29;20465;-86
2022/04/02 09:00:42;;;;;;;12.63;3.17;;;;;;;21.96;34.20;99217.16;4957160;28;20070;-86
2022/04/02 09:03:28;;;;;;;11.10;3.38;;;;;;;22.09;33.89;99227.09;4956667;28;20050;-86
2022/04/02 09:06:29;;;;;;;7.32;2.35;;;;;;;22.21;33.53;99219.75;4959585;29;20034;-86
2022/04/02 09:09:14;;;;;;;14.27;2.60;;;;;;;22.39;33.46;99224.31;4911934;29;20543;-84
2022/04/02 09:12:15;;;;;;;9.25;2.65;;;;;;;22.28;33.46;99190.38;4956865;28;20027;-85
2022/04/02 09:14:55;;;;;;;18.48;3.83;;;;;;;22.64;33.66;99224.97;4921847;28;20058;-86
2022/04/02 09:17:37;;;;;;;15.48;3.47;;;;;;;22.71;33.89;99221.09;4964577;29;20058;-85
2022/04/02 09:20:40;;;;;;;19.80;3.67;;;;;;;22.89;33.84;99222.03;4963118;28;20050;-84
2022/04/02 09:23:10;;;;;;;9.88;3.05;;;;;;;22.78;33.93;99210.00;4963342;28;20107;-83
2022/04/02 09:26:13;;;;;;;18.95;3.72;;;;;;;22.86;33.94;99217.03;4957154;28;20035;-87
2022/04/02 09:28:52;;;;;;;13.05;3.25;;;;;;;22.69;34.46;99204.00;4955093;29;20035;-85
2022/04/02 09:31:39;;;;;;;19.10;3.95;;;;;;;23.02;34.75;99233.59;4955251;28;20023;-86
2022/04/02 09:34:07;;;;;;;19.90;4.72;;;;;;;23.13;34.66;99234.66;4956138;29;20067;-85
2022/04/02 09:36:45;;;;;;;26.95;4.60;;;;;;;23.20;34.45;99229.88;4955483;29;20063;-86
2022/04/02 09:39:32;;;;;;;16.33;4.15;;;;;;;22.97;34.55;99224.41;4957317;29;20023;-86
2022/04/02 09:41:58;;;;;;;25.20;4.60;;;;;;;23.19;34.90;99230.94;4959181;28;20085;-85
2022/04/02 09:44:38;;;;;;;18.35;4.25;;;;;;;23.29;34.72;99228.44;4965103;28;20055;-86
2022/04/02 09:47:14;;;;;;;13.85;3.95;;;;;;;23.33;33.75;99224.97;4976706;28;20038;-88
2022/04/02 09:49:40;;;;;;;17.52;3.88;;;;;;;23.47;33.00;99225.56;4974660;28;20023;-87
2022/04/02 09:52:08;;;;;;;16.88;4.70;;;;;;;23.54;32.70;99215.31;4974286;28;20397;-88
2022/04/02 09:54:56;;;;;;;11.95;3.30;;;;;;;23.64;32.20;99212.75;4974424;28;20035;-86
2022/04/02 09:57:40;;;;;;;20.92;3.50;;;;;;;23.66;31.55;99209.78;4956845;28;20071;-86
2022/04/02 10:00:08;;;;;;;20.90;3.90;;;;;;;23.34;31.60;99181.91;4974405;28;20153;-87
2022/04/02 10:02:59;;;;;;;25.02;3.60;;;;;;;23.37;31.75;99213.50;4989630;28;20050;-86
2022/04/02 10:05:51;;;;;;;19.83;3.10;;;;;;;22.97;32.23;99186.00;4975362;28;20103;-85
2022/04/02 10:09:08;;;;;;;16.95;3.85;;;;;;;22.94;32.45;99201.03;4961707;28;20122;-86
2022/04/02 10:11:38;;;;;;;24.63;4.32;;;;;;;22.50;32.95;99158.59;4917408;28;20038;-86
2022/04/02 10:14:04;;;;;;;18.08;3.47;;;;;;;22.69;33.03;99205.91;4974478;28;20033;-86
2022/04/02 10:16:32;;;;;;;22.25;4.68;;;;;;;22.58;33.10;99180.16;4956465;28;20046;-86
2022/04/02 10:19:01;;;;;;;14.90;3.60;;;;;;;22.82;33.07;99196.63;4982447;28;20046;-84
2022/04/02 10:21:35;;;;;;;8.73;2.50;;;;;;;22.85;32.58;99194.25;4987578;28;20023;-88
2022/04/02 10:24:18;;;;;;;21.58;3.78;;;;;;;22.60;32.53;99161.56;4987397;28;20011;-85
2022/04/02 10:26:48;;;;;;;24.30;3.97;;;;;;;22.77;32.59;99197.34;4974547;28;20080;-85
2022/04/02 10:29:30;;;;;;;16.75;3.35;;;;;;;22.32;32.33;99123.09;4973964;28;20037;-87
2022/04/02 10:32:25;;;;;;;19.03;4.57;;;;;;;22.86;32.25;99203.31;4957076;28;20027;-86
2022/04/02 10:35:06;;;;;;;10.20;2.90;;;;;;;22.67;31.68;99187.00;4974343;28;20050;-84
2022/04/02 10:37:40;;;;;;;8.23;2.80;;;;;;;22.68;31.99;99187.81;4974912;28;20023;-85
2022/04/02 10:40:11;;;;;;;18.17;4.13;;;;;;;22.93;32.23;99201.28;4975364;28;20030;-86
2022/04/02 10:42:39;;;;;;;10.68;3.05;;;;;;;23.13;31.84;99207.22;4979444;28;20027;-83
2022/04/02 10:45:08;;;;;;;8.07;2.70;;;;;;;23.24;31.07;99198.97;4985653;28;20047;-85
2022/04/02 10:48:10;;;;;;;15.70;3.13;;;;;;;23.39;30.07;99194.91;4964773;28;20036;-86
2022/04/02 10:50:37;;;;;;;14.30;2.70;;;;;;;23.44;29.73;99198.63;4975962;28;20110;-87
2022/04/02 10:53:04;;;;;;;14.57;2.90;;;;;;;23.39;29.57;99194.91;4974534;28;20269;-87
2022/04/02 10:55:31;;;;;;;13.75;2.65;;;;;;;23.47;29.31;99191.81;4959008;28;20026;-86
2022/04/02 10:57:59;;;;;;;13.82;3.40;;;;;;;23.41;29.51;99160.69;4974900;28;20105;-86
2022/04/02 11:00:29;;;;;;;22.35;3.75;;;;;;;23.64;29.81;99187.22;4975886;28;20031;-85
2022/04/02 11:03:04;;;;;;;18.98;3.05;;;;;;;23.71;29.12;99177.75;4975841;28;20113;-85
2022/04/02 11:05:37;;;;;;;15.20;3.13;;;;;;;23.83;28.94;99184.03;4974713;28;20022;-85
2022/04/02 11:08:10;;;;;;;10.55;2.85;;;;;;;23.80;28.51;99189.19;4974237;28;20030;-86
2022/04/02 11:10:36;;;;;;;13.90;2.85;;;;;;;23.47;28.12;99135.00;4973615;28;20037;-86
2022/04/02 11:13:04;;;;;;;19.45;3.88;;;;;;;23.22;28.41;99135.31;4958060;28;20045;-87
2022/04/02 11:15:37;;;;;;;9.52;2.92;;;;;;;23.65;28.64;99172.41;4974257;28;20106;-86
2022/04/02 11:18:04;;;;;;;6.40;2.10;;;;;;;23.89;29.01;99178.63;4973909;28;20031;-85
2022/04/02 11:20:31;;;;;;;14.32;3.22;;;;;;;23.56;29.15;99086.88;4956604;28;20022;-87
2022/04/02 11:23:13;;;;;;;21.50;3.33;;;;;;;24.01;28.73;99128.06;4956123;28;20077;-85
2022/04/02 11:25:49;;;;;;;13.77;2.53;;;;;;;24.09;28.67;99124.91;4974537;28;20034;-86
2022/04/02 11:28:20;;;;;;;13.30;3.05;;;;;;;24.52;28.84;99165.50;4955991;28;20106;-85
2022/04/02 11:31:02;;;;;;;11.93;2.10;;;;;;;24.77;24.46;99170.53;4956306;28;20502;-86
2022/04/02 11:33:27;;;;;;;6.30;1.83;;;;;;;24.65;24.72;99134.91;4955754;28;20026;-86
2022/04/02 11:35:58;;;;;;;7.38;1.67;;;;;;;24.79;24.44;99125.22;4979474;28;20504;-87